createdAt,value
2022-08-03T00:02:20.327Z,7.70
2022-08-03T00:04:48.450Z,7.28
2022-08-03T00:07:16.287Z,7.53
2022-08-03T00:09:44.163Z,9.15
2022-08-03T00:12:11.835Z,7.63
2022-08-03T00:14:39.343Z,7.15
2022-08-03T00:17:07.026Z,8.65
2022-08-03T00:19:34.878Z,7.68
2022-08-03T00:22:02.512Z,6.97
2022-08-03T00:24:31.400Z,7.38
2022-08-03T00:26:59.054Z,8.07
2022-08-03T00:29:26.706Z,8.88
2022-08-03T00:31:59.429Z,7.50
2022-08-03T00:34:36.240Z,7.75
2022-08-03T00:37:16.387Z,7.90
2022-08-03T00:39:46.229Z,7.40
2022-08-03T00:42:14.292Z,7.63
2022-08-03T00:44:46.114Z,7.07
2022-08-03T00:47:13.970Z,7.25
2022-08-03T00:49:42.473Z,9.43
2022-08-03T00:52:11.392Z,7.55
2022-08-03T00:54:39.892Z,8.85
2022-08-03T00:57:07.778Z,7.30
2022-08-03T00:59:35.535Z,8.07
2022-08-03T01:02:03.187Z,8.05
2022-08-03T01:04:30.665Z,8.65
2022-08-03T01:07:30.351Z,8.10
2022-08-03T01:10:18.889Z,8.10
2022-08-03T01:12:57.050Z,7.72
2022-08-03T01:15:41.206Z,7.07
2022-08-03T01:18:17.246Z,7.40
2022-08-03T01:20:53.797Z,8.05
2022-08-03T01:23:49.466Z,8.27
2022-08-03T01:26:19.863Z,7.55
2022-08-03T01:28:50.630Z,8.75
2022-08-03T01:31:24.257Z,8.32
2022-08-03T01:33:57.746Z,9.00
2022-08-03T01:36:30.640Z,8.05
2022-08-03T01:39:02.433Z,7.90
2022-08-03T01:41:33.876Z,7.60
2022-08-03T01:44:30.030Z,7.95
2022-08-03T01:46:52.902Z,6.90
2022-08-03T01:49:21.598Z,8.05
2022-08-03T01:52:03.097Z,7.38
2022-08-03T01:54:38.091Z,8.25
2022-08-03T01:57:06.341Z,7.63
2022-08-03T01:59:36.961Z,8.23
2022-08-03T02:02:28.906Z,10.40
2022-08-03T02:04:57.186Z,7.68
2022-08-03T02:07:25.975Z,8.52
2022-08-03T02:09:54.740Z,7.68
2022-08-03T02:12:26.083Z,7.90
2022-08-03T02:14:56.741Z,7.60
2022-08-03T02:17:39.020Z,8.70
2022-08-03T02:20:09.585Z,9.85
2022-08-03T02:22:42.029Z,10.38
2022-08-03T02:25:11.737Z,7.65
2022-08-03T02:28:00.074Z,8.38
2022-08-03T02:30:39.428Z,8.70
2022-08-03T02:33:17.554Z,7.93
2022-08-03T02:35:47.530Z,7.43
2022-08-03T02:38:20.589Z,8.07
2022-08-03T02:40:50.648Z,9.30
2022-08-03T02:43:22.197Z,8.52
2022-08-03T02:45:51.819Z,8.20
2022-08-03T02:48:25.102Z,8.30
2022-08-03T02:50:55.156Z,8.02
2022-08-03T02:53:23.536Z,8.57
2022-08-03T02:55:52.674Z,9.23
2022-08-03T02:58:21.679Z,8.70
2022-08-03T03:00:52.245Z,9.07
2022-08-03T03:03:21.297Z,11.48
2022-08-03T03:05:55.894Z,7.72
2022-08-03T03:08:28.800Z,7.90
2022-08-03T03:11:01.419Z,8.00
2022-08-03T03:13:32.801Z,8.00
2022-08-03T03:16:06.416Z,8.82
2022-08-03T03:18:35.549Z,8.13
2022-08-03T03:21:04.824Z,9.25
2022-08-03T03:23:35.009Z,8.73
2022-08-03T03:26:03.881Z,7.57
2022-08-03T03:28:32.518Z,9.07
2022-08-03T03:31:01.075Z,8.13
2022-08-03T03:33:28.845Z,11.63
2022-08-03T03:35:58.021Z,9.35
2022-08-03T03:38:25.765Z,8.48
2022-08-03T03:40:54.118Z,7.97
2022-08-03T03:43:23.948Z,8.02
2022-08-03T03:45:54.065Z,7.97
2022-08-03T03:48:21.734Z,7.93
2022-08-03T03:50:50.867Z,8.02
2022-08-03T03:53:18.513Z,8.40
2022-08-03T03:55:59.348Z,7.95
2022-08-03T03:58:31.745Z,9.00
2022-08-03T04:00:59.931Z,8.75
2022-08-03T04:03:28.131Z,8.77
2022-08-03T04:06:14.465Z,9.23
2022-08-03T04:09:00.506Z,9.20
2022-08-03T04:11:40.940Z,7.68
2022-08-03T04:14:26.104Z,7.75
2022-08-03T04:17:13.932Z,8.40
2022-08-03T04:19:46.585Z,8.32
2022-08-03T04:22:19.074Z,10.98
2022-08-03T04:24:54.049Z,8.20
2022-08-03T04:27:29.277Z,8.18
2022-08-03T04:29:57.931Z,12.82
2022-08-03T04:32:28.971Z,8.20
2022-08-03T04:34:56.710Z,8.75
2022-08-03T04:37:42.113Z,7.93
2022-08-03T04:40:23.017Z,8.50
2022-08-03T04:42:52.265Z,11.30
2022-08-03T04:45:21.285Z,11.40
2022-08-03T04:47:50.557Z,8.43
2022-08-03T04:50:21.523Z,9.75
2022-08-03T04:53:06.127Z,7.78
2022-08-03T04:55:36.169Z,8.23
2022-08-03T04:58:04.992Z,8.30
2022-08-03T05:00:33.077Z,7.80
2022-08-03T05:03:00.680Z,8.18
2022-08-03T05:05:48.638Z,8.27
2022-08-03T05:08:15.928Z,8.02
2022-08-03T05:10:48.754Z,8.43
2022-08-03T05:13:16.363Z,9.80
2022-08-03T05:15:43.912Z,9.07
2022-08-03T05:18:14.206Z,8.00
2022-08-03T05:20:42.180Z,7.88
2022-08-03T05:23:09.857Z,7.90
2022-08-03T05:25:37.426Z,7.70
2022-08-03T05:28:06.953Z,8.60
2022-08-03T05:30:34.790Z,9.27
2022-08-03T05:33:03.750Z,7.75
2022-08-03T05:35:57.673Z,10.77
2022-08-03T05:38:23.735Z,8.93
2022-08-03T05:40:57.003Z,9.20
2022-08-03T05:43:25.633Z,9.23
2022-08-03T05:46:12.389Z,8.02
2022-08-03T05:48:41.962Z,8.15
2022-08-03T05:51:12.027Z,10.60
2022-08-03T05:53:41.421Z,8.55
2022-08-03T05:56:14.698Z,7.72
2022-08-03T05:58:45.059Z,8.02
2022-08-03T06:01:12.705Z,8.30
2022-08-03T06:03:40.536Z,8.45
2022-08-03T06:06:08.183Z,10.00
2022-08-03T06:08:35.902Z,7.72
2022-08-03T06:11:04.408Z,7.63
2022-08-03T06:13:32.469Z,7.57
2022-08-03T06:16:00.188Z,8.10
2022-08-03T06:18:28.049Z,7.32
2022-08-03T06:20:56.079Z,8.90
2022-08-03T06:23:53.101Z,9.27
2022-08-03T06:26:13.368Z,8.07
2022-08-03T06:28:52.637Z,7.45
2022-08-03T06:31:24.304Z,7.25
2022-08-03T06:34:32.617Z,7.40
2022-08-03T06:36:40.181Z,6.80
2022-08-03T06:39:08.153Z,7.45
2022-08-03T06:41:37.550Z,7.82
2022-08-03T06:44:10.468Z,6.68
2022-08-03T06:46:38.253Z,7.22
2022-08-03T06:49:07.138Z,7.93
2022-08-03T06:52:03.226Z,8.30
2022-08-03T06:54:22.660Z,12.43
2022-08-03T06:56:50.649Z,7.10
2022-08-03T07:00:05.987Z,6.80
2022-08-03T07:02:05.989Z,9.60
2022-08-03T07:04:33.848Z,8.00
2022-08-03T07:07:01.623Z,7.97
2022-08-03T07:09:29.299Z,7.20
2022-08-03T07:11:57.396Z,6.90
2022-08-03T07:14:25.294Z,7.97
2022-08-03T07:16:52.767Z,7.00
2022-08-03T07:19:20.401Z,7.00
2022-08-03T07:21:48.081Z,7.65
2022-08-03T07:24:15.725Z,8.43
2022-08-03T07:26:43.340Z,7.82
2022-08-03T07:29:14.941Z,8.00
2022-08-03T07:31:43.275Z,8.32
2022-08-03T07:34:10.838Z,8.45
2022-08-03T07:36:38.823Z,6.45
2022-08-03T07:39:15.753Z,9.07
2022-08-03T07:41:47.013Z,6.47
2022-08-03T07:44:14.860Z,6.28
2022-08-03T07:46:42.499Z,6.45
2022-08-03T07:49:10.222Z,6.15
2022-08-03T07:51:38.257Z,6.07
2022-08-03T07:54:06.474Z,6.18
2022-08-03T07:56:35.079Z,7.45
2022-08-03T07:59:03.272Z,6.03
2022-08-03T08:01:33.096Z,6.60
2022-08-03T08:04:00.726Z,6.15
2022-08-03T08:06:28.382Z,5.18
2022-08-03T08:08:59.804Z,6.20
2022-08-03T08:11:27.403Z,6.35
2022-08-03T08:13:55.131Z,6.70
2022-08-03T08:16:22.642Z,5.68
2022-08-03T08:18:50.298Z,7.50
2022-08-03T08:21:17.878Z,7.00
2022-08-03T08:23:53.723Z,6.68
2022-08-03T08:26:25.508Z,5.97
2022-08-03T08:28:53.426Z,6.93
2022-08-03T08:31:20.970Z,6.80
2022-08-03T08:34:03.565Z,6.30
2022-08-03T08:36:35.626Z,6.63
2022-08-03T08:39:03.391Z,6.20
2022-08-03T08:41:34.250Z,6.35
2022-08-03T08:44:02.672Z,7.00
2022-08-03T08:46:33.638Z,5.72
2022-08-03T08:49:04.723Z,6.30
2022-08-03T08:51:54.764Z,6.18
2022-08-03T08:54:30.033Z,6.03
2022-08-03T08:57:02.289Z,6.70
2022-08-03T08:59:49.105Z,6.22
2022-08-03T09:02:18.243Z,6.80
2022-08-03T09:04:49.076Z,4.93
2022-08-03T09:07:20.345Z,6.20
2022-08-03T09:10:10.361Z,7.97
2022-08-03T09:12:54.822Z,5.95
2022-08-03T09:15:27.300Z,5.50
2022-08-03T09:17:57.101Z,7.07
2022-08-03T09:20:26.869Z,9.00
2022-08-03T09:23:44.507Z,6.43
2022-08-03T09:25:59.885Z,6.20
2022-08-03T09:29:01.350Z,6.55
2022-08-03T09:31:34.317Z,6.53
2022-08-03T09:34:09.419Z,6.30
2022-08-03T09:36:43.305Z,5.40
2022-08-03T09:39:19.647Z,4.95
2022-08-03T09:42:11.759Z,6.78
2022-08-03T09:44:47.460Z,5.35
2022-08-03T09:47:32.316Z,5.97
2022-08-03T09:50:08.887Z,3.75
2022-08-03T09:52:49.819Z,6.53
2022-08-03T09:56:34.962Z,8.43
2022-08-03T09:58:11.648Z,5.57
2022-08-03T10:00:58.837Z,5.07
2022-08-03T10:03:30.107Z,4.70
2022-08-03T10:06:00.020Z,5.95
2022-08-03T10:08:28.149Z,4.60
2022-08-03T10:10:55.797Z,5.40
2022-08-03T10:13:23.907Z,5.53
2022-08-03T10:16:22.768Z,5.78
2022-08-03T10:18:39.321Z,6.60
2022-08-03T10:21:10.837Z,5.75
2022-08-03T10:23:40.840Z,5.38
2022-08-03T10:26:12.951Z,5.95
2022-08-03T10:28:50.160Z,6.22
2022-08-03T10:31:20.884Z,5.20
2022-08-03T10:33:53.295Z,5.65
2022-08-03T10:36:24.879Z,5.35
2022-08-03T10:38:54.001Z,6.60
2022-08-03T10:41:26.509Z,5.43
2022-08-03T10:43:59.608Z,5.95
2022-08-03T10:46:29.020Z,4.22
2022-08-03T10:48:57.343Z,5.53
2022-08-03T10:51:30.778Z,6.30
2022-08-03T10:54:01.940Z,5.43
2022-08-03T10:56:51.000Z,4.63
2022-08-03T10:59:47.384Z,6.22
2022-08-03T11:02:16.274Z,5.28
2022-08-03T11:04:45.500Z,5.25
2022-08-03T11:07:22.193Z,6.25
2022-08-03T11:09:55.072Z,5.78
2022-08-03T11:12:32.231Z,5.20
2022-08-03T11:15:08.954Z,4.13
2022-08-03T11:17:46.660Z,5.38
2022-08-03T11:20:50.089Z,6.95
2022-08-03T11:24:02.799Z,4.82
2022-08-03T11:26:19.227Z,4.88
2022-08-03T11:28:48.159Z,5.90
2022-08-03T11:34:17.106Z,5.15
2022-08-03T11:37:20.876Z,6.05
2022-08-03T11:39:51.121Z,6.18
2022-08-03T11:42:24.942Z,4.85
2022-08-03T11:44:57.923Z,5.15
2022-08-03T11:47:29.124Z,5.18
2022-08-03T11:50:00.869Z,6.72
2022-08-03T11:52:35.865Z,6.45
2022-08-03T11:55:08.736Z,4.57
2022-08-03T11:59:01.068Z,6.30
2022-08-03T12:00:29.787Z,6.82
2022-08-03T12:03:05.857Z,4.97
2022-08-03T12:05:53.311Z,5.15
2022-08-03T12:08:28.397Z,5.75
2022-08-03T12:10:57.512Z,4.15
2022-08-03T12:14:05.774Z,4.32
2022-08-03T12:16:29.009Z,6.15
2022-08-03T12:18:57.919Z,5.88
2022-08-03T12:21:25.804Z,3.97
2022-08-03T12:24:00.508Z,5.07
2022-08-03T12:26:29.853Z,5.18
2022-08-03T12:28:58.404Z,5.20
2022-08-03T12:31:26.463Z,5.75
2022-08-03T12:34:03.524Z,6.72
2022-08-03T12:36:34.630Z,7.05
2022-08-03T12:39:06.194Z,5.55
2022-08-03T12:41:36.018Z,4.93
2022-08-03T12:44:06.545Z,4.72
2022-08-03T12:46:47.054Z,4.57
2022-08-03T12:49:19.075Z,6.18
2022-08-03T12:51:46.894Z,5.43
2022-08-03T12:54:24.702Z,5.30
2022-08-03T12:57:09.042Z,4.95
2022-08-03T12:59:52.641Z,4.40
2022-08-03T13:02:26.559Z,5.72
2022-08-03T13:04:56.195Z,5.45
2022-08-03T13:07:24.045Z,5.93
2022-08-03T13:09:54.701Z,5.22
2022-08-03T13:12:24.643Z,4.40
2022-08-03T13:14:55.974Z,5.43
2022-08-03T13:17:23.823Z,4.95
2022-08-03T13:19:52.904Z,4.68
2022-08-03T13:22:22.810Z,4.35
2022-08-03T13:24:52.668Z,5.38
2022-08-03T13:28:04.863Z,5.53
2022-08-03T13:30:09.320Z,7.18
2022-08-03T13:32:37.029Z,4.70
2022-08-03T13:35:05.726Z,5.15
2022-08-03T13:37:33.536Z,6.88
2022-08-03T13:40:04.473Z,3.47
2022-08-03T13:42:35.162Z,5.32
2022-08-03T13:45:03.454Z,4.50
2022-08-03T13:47:31.242Z,5.60
2022-08-03T13:50:01.387Z,3.97
2022-08-03T13:52:32.115Z,6.13
2022-08-03T13:55:00.443Z,5.65
2022-08-03T13:58:03.969Z,4.80
2022-08-03T14:00:27.820Z,4.13
2022-08-03T14:03:12.544Z,5.97
2022-08-03T14:05:43.197Z,5.88
2022-08-03T14:08:11.978Z,4.93
2022-08-03T14:10:45.435Z,6.32
2022-08-03T14:13:17.447Z,3.85
2022-08-03T14:15:50.382Z,4.85
2022-08-03T14:18:28.673Z,5.22
2022-08-03T14:21:06.268Z,5.13
2022-08-03T14:23:35.539Z,6.50
2022-08-03T14:26:03.322Z,5.30
2022-08-03T14:28:30.839Z,4.03
2022-08-03T14:30:58.601Z,4.85
2022-08-03T14:33:26.387Z,4.68
2022-08-03T14:35:54.519Z,5.85
2022-08-03T14:38:22.890Z,3.97
2022-08-03T14:40:50.880Z,3.55
2022-08-03T14:43:18.786Z,3.92
2022-08-03T14:45:46.539Z,4.25
2022-08-03T14:50:29.666Z,4.45
2022-08-03T14:51:02.164Z,4.97
2022-08-03T14:53:30.421Z,5.55
2022-08-03T14:55:59.453Z,4.03
2022-08-03T14:58:27.123Z,4.85
2022-08-03T15:00:56.120Z,5.28
2022-08-03T15:03:25.281Z,6.85
2022-08-03T15:05:57.302Z,5.85
2022-08-03T15:08:26.101Z,5.18
2022-08-03T15:10:56.356Z,4.95
2022-08-03T15:13:25.594Z,5.57
2022-08-03T15:15:53.628Z,5.20
2022-08-03T15:18:21.270Z,4.78
2022-08-03T15:20:50.759Z,5.35
2022-08-03T15:23:19.197Z,4.50
2022-08-03T15:26:29.501Z,4.68
2022-08-03T15:28:37.539Z,5.25
2022-08-03T15:31:06.795Z,4.10
2022-08-03T15:33:35.282Z,5.28
2022-08-03T15:36:03.805Z,3.80
2022-08-03T15:38:31.531Z,6.13
2022-08-03T15:40:59.339Z,5.03
2022-08-03T15:43:27.195Z,5.80
2022-08-03T15:46:26.535Z,4.18
2022-08-03T15:48:42.610Z,4.55
2022-08-03T15:51:10.426Z,5.90
2022-08-03T15:53:38.692Z,3.83
2022-08-03T15:56:11.344Z,4.30
2022-08-03T15:59:03.877Z,3.92
2022-08-03T16:01:31.474Z,4.88
2022-08-03T16:03:59.071Z,4.70
2022-08-03T16:06:35.509Z,3.85
2022-08-03T16:09:24.231Z,7.97
2022-08-03T16:11:56.053Z,6.38
2022-08-03T16:14:32.110Z,4.97
2022-08-03T16:17:05.854Z,5.28
2022-08-03T16:19:33.623Z,5.43
2022-08-03T16:22:01.279Z,5.20
2022-08-03T16:24:28.850Z,5.30
2022-08-03T16:26:57.195Z,4.00
2022-08-03T16:29:24.909Z,3.70
2022-08-03T16:31:53.288Z,5.35
2022-08-03T16:34:21.525Z,4.50
2022-08-03T16:36:49.188Z,5.65
2022-08-03T16:39:17.043Z,4.55
2022-08-03T16:41:53.705Z,5.28
2022-08-03T16:44:31.594Z,5.43
2022-08-03T16:47:00.253Z,5.03
2022-08-03T16:49:53.787Z,4.88
2022-08-03T16:52:16.881Z,5.22
2022-08-03T16:54:50.638Z,5.35
2022-08-03T16:57:55.815Z,4.63
2022-08-03T17:00:33.279Z,4.97
2022-08-03T17:03:19.031Z,5.18
2022-08-03T17:05:52.434Z,5.35
2022-08-03T17:08:26.955Z,5.57
2022-08-03T17:10:56.384Z,5.28
2022-08-03T17:13:27.819Z,5.05
2022-08-03T17:16:09.674Z,5.68
2022-08-03T17:18:48.705Z,5.07
2022-08-03T17:21:18.002Z,4.50
2022-08-03T17:24:04.355Z,6.68
2022-08-03T17:26:46.117Z,6.57
2022-08-03T17:29:26.108Z,6.45
2022-08-03T17:31:57.778Z,7.43
2022-08-03T17:34:26.602Z,6.45
2022-08-03T17:37:04.217Z,5.75
2022-08-03T17:39:57.566Z,5.22
2022-08-03T17:42:29.170Z,6.43
2022-08-03T17:45:15.775Z,4.03
2022-08-03T17:47:57.969Z,5.25
2022-08-03T17:50:37.533Z,4.75
2022-08-03T17:53:15.389Z,5.22
2022-08-03T17:56:07.705Z,4.72
2022-08-03T17:59:17.054Z,4.45
2022-08-03T18:02:30.496Z,4.82
2022-08-03T18:05:16.262Z,5.35
2022-08-03T18:08:02.340Z,6.03
2022-08-03T18:10:35.343Z,6.47
2022-08-03T18:13:20.489Z,5.32
2022-08-03T18:15:54.588Z,5.82
2022-08-03T18:18:36.558Z,4.43
2022-08-03T18:21:17.267Z,6.90
2022-08-03T18:23:50.352Z,5.35
2022-08-03T18:26:18.963Z,5.85
2022-08-03T18:28:48.924Z,6.15
2022-08-03T18:31:33.237Z,5.57
2022-08-03T18:34:18.573Z,4.95
2022-08-03T18:36:57.507Z,4.40
2022-08-03T18:39:28.758Z,5.93
2022-08-03T18:41:57.695Z,5.72
2022-08-03T18:44:53.410Z,4.95
2022-08-03T18:47:51.490Z,9.98
2022-08-03T18:50:33.812Z,7.72
2022-08-03T18:53:19.612Z,4.95
2022-08-03T18:56:03.726Z,7.10
2022-08-03T18:58:38.787Z,5.32
2022-08-03T19:02:00.977Z,6.82
2022-08-03T19:04:32.543Z,7.53
2022-08-03T19:07:11.047Z,5.70
2022-08-03T19:09:48.761Z,8.40
2022-08-03T19:12:45.723Z,6.53
2022-08-03T19:15:15.663Z,5.32
2022-08-03T19:17:50.259Z,5.93
2022-08-03T19:20:24.994Z,8.23
2022-08-03T19:22:56.019Z,5.30
2022-08-03T19:25:34.327Z,8.38
2022-08-03T19:28:06.120Z,5.70
2022-08-03T19:30:38.886Z,6.00
2022-08-03T19:33:09.809Z,5.63
2022-08-03T19:35:51.151Z,8.98
2022-08-03T19:38:28.387Z,5.40
2022-08-03T19:41:03.534Z,5.25
2022-08-03T19:43:49.543Z,5.80
2022-08-03T19:46:22.741Z,6.85
2022-08-03T19:49:14.838Z,5.72
2022-08-03T19:52:01.562Z,8.35
2022-08-03T19:55:00.649Z,6.05
2022-08-03T19:57:29.638Z,6.60
2022-08-03T19:59:58.060Z,7.60
2022-08-03T20:05:15.222Z,7.03
2022-08-03T20:07:48.047Z,6.70
2022-08-03T20:10:17.852Z,6.45
2022-08-03T20:12:46.705Z,5.20
2022-08-03T20:15:18.088Z,5.95
2022-08-03T20:17:56.201Z,6.60
2022-08-03T20:20:32.162Z,7.30
2022-08-03T20:23:03.647Z,7.50
2022-08-03T20:25:57.035Z,4.97
2022-08-03T20:28:50.241Z,5.22
2022-08-03T20:31:25.179Z,6.18
2022-08-03T20:34:00.904Z,5.63
2022-08-03T20:36:28.692Z,6.63
2022-08-03T20:38:59.650Z,4.70
2022-08-03T20:41:27.444Z,5.15
2022-08-03T20:43:55.793Z,7.20
2022-08-03T20:46:32.568Z,5.95
2022-08-03T20:49:09.492Z,6.45
2022-08-03T20:51:49.682Z,6.13
2022-08-03T20:54:30.890Z,6.05
2022-08-03T20:57:10.947Z,5.55
2022-08-03T20:59:50.108Z,6.25
2022-08-03T21:05:09.419Z,5.32
2022-08-03T21:08:04.826Z,8.27
2022-08-03T21:10:35.869Z,5.72
2022-08-03T21:13:08.591Z,5.47
2022-08-03T21:13:46.911Z,6.68
2022-08-03T21:16:15.431Z,6.22
2022-08-03T21:19:03.654Z,6.15
2022-08-03T21:21:33.372Z,7.03
2022-08-03T21:24:03.830Z,4.47
2022-08-03T21:26:34.191Z,6.57
2022-08-03T21:29:02.762Z,8.15
2022-08-03T21:31:30.401Z,7.45
2022-08-03T21:34:03.825Z,5.53
2022-08-03T21:36:36.381Z,6.25
2022-08-03T21:39:07.676Z,5.78
2022-08-03T21:41:36.814Z,7.60
2022-08-03T21:44:05.689Z,7.00
2022-08-03T21:46:41.382Z,5.43
2022-08-03T21:50:06.831Z,5.80
2022-08-03T21:52:00.131Z,5.75
2022-08-03T21:54:36.431Z,6.10
2022-08-03T21:57:08.801Z,5.38
2022-08-03T21:59:38.408Z,6.40
2022-08-03T22:02:20.070Z,6.45
2022-08-03T22:04:57.050Z,5.65
2022-08-03T22:07:29.373Z,5.63
2022-08-03T22:09:58.638Z,5.35
2022-08-03T22:12:28.308Z,6.28
2022-08-03T22:15:00.349Z,5.35
2022-08-03T22:17:55.263Z,6.03
2022-08-03T22:20:20.017Z,5.50
2022-08-03T22:22:55.588Z,6.30
2022-08-03T22:25:32.454Z,5.70
2022-08-03T22:28:06.415Z,5.40
2022-08-03T22:30:36.161Z,4.72
2022-08-03T22:33:11.134Z,5.68
2022-08-03T22:35:51.884Z,6.28
2022-08-03T22:38:19.651Z,6.35
2022-08-03T22:40:51.288Z,5.95
2022-08-03T22:43:23.512Z,5.70
2022-08-03T22:46:10.106Z,4.90
2022-08-03T22:48:40.826Z,5.53
2022-08-03T22:51:09.890Z,6.32
2022-08-03T22:53:38.868Z,7.30
2022-08-03T22:56:08.004Z,6.05
2022-08-03T22:58:35.648Z,5.82
2022-08-03T23:01:07.234Z,6.22
2022-08-03T23:04:00.686Z,5.50
2022-08-03T23:06:32.314Z,5.40
2022-08-03T23:09:00.914Z,6.20
2022-08-03T23:11:29.227Z,5.25
2022-08-03T23:13:59.732Z,6.45
2022-08-03T23:16:29.280Z,6.13
2022-08-03T23:18:59.791Z,6.60
2022-08-03T23:22:00.199Z,5.43
2022-08-03T23:24:30.283Z,5.40
2022-08-03T23:26:59.490Z,6.32
2022-08-03T23:29:29.545Z,5.63
2022-08-03T23:31:58.279Z,5.55
2022-08-03T23:34:46.040Z,5.30
2022-08-03T23:37:17.665Z,5.35
2022-08-03T23:39:49.278Z,5.55
2022-08-03T23:42:19.173Z,5.50
2022-08-03T23:44:47.006Z,5.43
2022-08-03T23:47:15.010Z,7.10
2022-08-03T23:49:42.678Z,6.40
2022-08-03T23:52:29.383Z,6.13
2022-08-03T23:55:29.989Z,6.80
2022-08-03T23:58:10.727Z,5.63
